Time;durP1;ratioP1;P1;durP2;ratioP2;P2;SDS_P1;SDS_P2;PMS_P1;PMS_P2;Temp;Humidity;BMP_temperature;BMP_pressure;BME280_temperature;BME280_humidity;BME280_pressure;Samples;Min_cycle;Max_cycle;Signal;HPM_P1;HPM_P2
2022/06/01 00:01:39;;;;;;;7.47;6.30;;;;;;;17.08;74.90;95060.53;5074960;28;20200;-70
2022/06/01 00:04:06;;;;;;;9.20;6.72;;;;;;;17.10;75.15;95058.16;5076157;28;20201;-70
2022/06/01 00:06:33;;;;;;;8.10;7.28;;;;;;;17.12;75.01;95061.34;5075366;28;20193;-70
2022/06/01 00:09:01;;;;;;;6.80;6.10;;;;;;;17.05;74.88;95055.75;5075942;28;20197;-71
2022/06/01 00:11:28;;;;;;;6.63;5.82;;;;;;;16.97;74.97;95057.72;5074599;28;20197;-71
2022/06/01 00:13:55;;;;;;;7.03;6.13;;;;;;;16.95;74.77;95062.09;5075541;28;20189;-71
2022/06/01 00:16:23;;;;;;;6.80;6.20;;;;;;;16.93;74.33;95061.72;5075882;28;20189;-71
2022/06/01 00:18:49;;;;;;;9.65;6.47;;;;;;;16.91;74.59;95064.88;5075503;28;20698;-71
2022/06/01 00:21:16;;;;;;;8.80;5.95;;;;;;;16.87;74.75;95064.06;5075573;28;20197;-71
2022/06/01 00:23:43;;;;;;;7.70;6.40;;;;;;;16.84;75.02;95060.06;5075854;28;20310;-71
2022/06/01 00:26:11;;;;;;;8.48;7.50;;;;;;;16.84;75.43;95056.50;5075620;28;20208;-70
2022/06/01 00:28:38;;;;;;;8.45;7.55;;;;;;;16.86;75.63;95068.06;5075642;28;20246;-70
2022/06/01 00:31:06;;;;;;;10.10;7.50;;;;;;;16.84;75.85;95067.63;5074806;28;20209;-71
2022/06/01 00:33:33;;;;;;;8.20;7.38;;;;;;;16.88;76.05;95071.22;5075659;28;20185;-71
2022/06/01 00:36:00;;;;;;;8.98;8.18;;;;;;;16.86;76.11;95064.47;5075629;28;20185;-69
2022/06/01 00:38:26;;;;;;;8.60;7.65;;;;;;;16.89;76.46;95063.69;5074469;28;20201;-70
2022/06/01 00:40:53;;;;;;;8.52;7.53;;;;;;;16.90;76.27;95062.50;5075501;28;20185;-71
2022/06/01 00:43:24;;;;;;;9.25;7.78;;;;;;;16.89;77.04;95067.28;5074406;28;20189;-71
2022/06/01 00:45:51;;;;;;;8.80;7.82;;;;;;;16.90;76.62;95068.06;5074800;28;20239;-71
2022/06/01 00:48:18;;;;;;;8.90;8.10;;;;;;;16.92;77.11;95068.44;5074620;28;20201;-71
2022/06/01 00:50:45;;;;;;;9.80;8.23;;;;;;;16.93;77.59;95061.72;5074217;28;20229;-71
2022/06/01 00:53:24;;;;;;;8.90;7.97;;;;;;;16.95;77.17;95060.09;5075215;28;20181;-71
2022/06/01 00:55:54;;;;;;;8.95;7.60;;;;;;;16.97;77.32;95054.94;5074260;28;20513;-71
2022/06/01 00:58:25;;;;;;;9.75;8.00;;;;;;;16.97;77.32;95062.50;5074394;28;20197;-71
2022/06/01 01:00:53;;;;;;;9.15;7.72;;;;;;;16.92;76.86;95062.88;5074469;28;20222;-70
2022/06/01 01:03:21;;;;;;;9.10;8.30;;;;;;;16.81;76.20;95060.06;5075153;28;20243;-71
2022/06/01 01:05:52;;;;;;;8.48;7.60;;;;;;;16.75;75.93;95062.44;5075401;28;20197;-71
2022/06/01 01:08:18;;;;;;;8.07;7.38;;;;;;;16.73;76.62;95055.63;5074245;28;20209;-70
2022/06/01 01:10:45;;;;;;;7.97;7.28;;;;;;;16.72;76.34;95046.50;5074165;28;20221;-70
2022/06/01 01:13:14;;;;;;;8.25;7.45;;;;;;;16.69;76.18;95035.34;5074233;28;20252;-70
2022/06/01 01:15:51;;;;;;;10.88;7.85;;;;;;;16.66;76.29;95036.13;5074601;28;20189;-70
2022/06/01 01:18:19;;;;;;;8.52;7.57;;;;;;;16.63;76.41;95037.72;5075095;28;20212;-70
2022/06/01 01:20:54;;;;;;;8.15;7.45;;;;;;;16.62;76.05;95033.31;5073839;28;20193;-69
2022/06/01 01:23:26;;;;;;;8.35;7.40;;;;;;;16.55;75.96;95036.88;5074630;28;20228;-70
2022/06/01 01:25:54;;;;;;;8.27;7.47;;;;;;;16.51;75.84;95029.72;5075051;28;20242;-70
2022/06/01 01:28:21;;;;;;;8.45;7.43;;;;;;;16.50;75.89;95030.91;5074670;28;20216;-71
2022/06/01 01:31:02;;;;;;;8.77;7.88;;;;;;;16.48;76.32;95020.16;5074931;28;20278;-70
2022/06/01 01:33:30;;;;;;;9.32;8.43;;;;;;;16.45;76.45;95018.16;5074085;28;20279;-70
2022/06/01 01:36:02;;;;;;;8.27;7.35;;;;;;;16.45;76.63;95020.13;5074927;28;20197;-70
2022/06/01 01:38:38;;;;;;;8.55;7.72;;;;;;;16.44;76.56;95016.56;5075034;28;20185;-70
2022/06/01 01:41:11;;;;;;;7.75;6.95;;;;;;;16.44;76.70;95010.19;5074841;28;20192;-70
2022/06/01 01:43:43;;;;;;;7.68;7.05;;;;;;;16.45;76.64;95011.78;5074578;28;20609;-70
2022/06/01 01:46:10;;;;;;;8.23;6.93;;;;;;;16.45;76.28;95011.78;5073967;28;20193;-70
2022/06/01 01:48:37;;;;;;;7.53;6.82;;;;;;;16.45;76.29;95011.78;5074875;28;20189;-70
2022/06/01 01:51:05;;;;;;;10.10;7.80;;;;;;;16.40;76.05;95020.53;5074755;28;20266;-70
2022/06/01 01:53:33;;;;;;;8.07;7.28;;;;;;;16.35;76.24;95013.34;5073704;28;20539;-70
2022/06/01 01:56:25;;;;;;;8.80;7.90;;;;;;;16.38;76.56;95015.34;5075436;28;20235;-73
2022/06/01 01:59:03;;;;;;;9.00;8.10;;;;;;;16.40;76.78;95018.53;5074063;28;20189;-71
2022/06/01 02:01:34;;;;;;;8.73;7.93;;;;;;;16.40;76.94;95021.31;5073813;28;20565;-71
2022/06/01 02:06:03;;;;;;;9.43;8.52;;;;;;;16.33;76.66;95032.41;5075569;28;20197;-71
2022/06/01 02:06:52;;;;;;;9.77;8.93;;;;;;;16.31;76.78;95020.91;5077211;28;20236;-71
2022/06/01 02:09:20;;;;;;;9.60;8.60;;;;;;;16.31;76.68;95032.03;5077088;28;20659;-71
2022/06/01 02:14:38;;;;;;;9.90;9.00;;;;;;;16.29;76.81;95029.63;5077469;28;20201;-71
2022/06/01 02:17:07;;;;;;;8.93;8.10;;;;;;;16.31;76.60;95024.47;5077398;28;20310;-71
2022/06/01 02:19:37;;;;;;;7.35;6.65;;;;;;;16.28;75.69;95025.25;5077178;28;20193;-70
2022/06/01 02:22:04;;;;;;;7.88;6.05;;;;;;;16.25;75.27;95023.25;5077113;28;20232;-70
2022/06/01 02:24:31;;;;;;;6.80;6.10;;;;;;;16.24;76.08;95030.00;5078056;28;20185;-70
2022/06/01 02:27:00;;;;;;;6.85;6.25;;;;;;;16.24;75.90;95038.34;5077077;28;20595;-71
2022/06/01 02:29:30;;;;;;;7.20;6.60;;;;;;;16.24;75.87;95040.34;5077811;28;20204;-71
2022/06/01 02:31:57;;;;;;;8.10;7.13;;;;;;;16.21;75.68;95028.00;5077153;28;20213;-71
2022/06/01 02:34:24;;;;;;;8.98;6.88;;;;;;;16.19;75.95;95035.91;5077121;28;20201;-71
2022/06/01 02:36:52;;;;;;;7.03;6.43;;;;;;;16.18;75.68;95037.13;5076970;28;20189;-71
2022/06/01 02:39:20;;;;;;;7.55;6.75;;;;;;;16.13;75.65;95041.06;5076592;28;20239;-71
2022/06/01 02:44:46;;;;;;;7.22;6.53;;;;;;;16.09;75.79;95045.81;5019443;28;20609;-71
2022/06/01 02:47:14;;;;;;;6.80;6.20;;;;;;;16.08;75.83;95048.97;5019302;28;20198;-71
2022/06/01 02:49:41;;;;;;;6.72;6.13;;;;;;;16.06;75.41;95049.38;5054629;28;20213;-73
2022/06/01 02:52:08;;;;;;;7.82;7.07;;;;;;;16.05;75.53;95045.00;5076175;28;20275;-73
2022/06/01 02:54:35;;;;;;;7.70;6.85;;;;;;;16.02;75.51;95045.00;5076763;28;20235;-73
2022/06/01 02:57:01;;;;;;;8.38;6.88;;;;;;;16.01;75.32;95048.94;5076373;28;20212;-73
2022/06/01 02:59:28;;;;;;;7.63;6.80;;;;;;;16.01;75.95;95052.53;5076024;28;20205;-73
2022/06/01 03:01:56;;;;;;;7.22;6.53;;;;;;;16.02;75.46;95047.78;5077577;28;20181;-76
2022/06/01 03:04:23;;;;;;;7.88;7.07;;;;;;;16.00;75.63;95045.38;5076445;28;20193;-72
2022/06/01 03:06:50;;;;;;;9.02;7.15;;;;;;;15.98;75.98;95044.19;5077359;28;20250;-72
2022/06/01 03:09:17;;;;;;;9.45;7.28;;;;;;;15.96;75.96;95046.53;5076290;28;20204;-72
2022/06/01 03:11:44;;;;;;;8.32;7.53;;;;;;;15.94;75.95;95051.69;5077168;28;20205;-72
2022/06/01 03:14:10;;;;;;;8.95;7.40;;;;;;;15.94;75.72;95054.47;5077162;28;20265;-72
2022/06/01 03:16:37;;;;;;;7.93;6.68;;;;;;;15.96;75.98;95057.66;5075953;28;20196;-73
2022/06/01 03:19:06;;;;;;;8.32;7.53;;;;;;;15.94;75.61;95048.91;5076106;28;20600;-72
2022/06/01 03:21:33;;;;;;;8.23;6.95;;;;;;;15.95;75.73;95061.63;5075961;28;20200;-72
2022/06/01 03:24:01;;;;;;;8.57;7.72;;;;;;;15.95;76.13;95059.66;5076508;28;20252;-72
2022/06/01 03:26:28;;;;;;;8.80;7.90;;;;;;;15.93;76.22;95062.00;5076915;28;20181;-72
2022/06/01 03:28:54;;;;;;;13.50;9.48;;;;;;;15.95;76.22;95056.88;5076203;28;20254;-72
2022/06/01 03:31:21;;;;;;;12.90;10.32;;;;;;;15.94;76.04;95065.59;5076480;28;20254;-73
2022/06/01 03:33:48;;;;;;;11.57;8.35;;;;;;;15.91;76.35;95067.19;5076103;28;20197;-72
2022/06/01 03:36:16;;;;;;;10.02;8.73;;;;;;;15.88;76.57;95067.94;5075872;28;20198;-72
2022/06/01 03:38:43;;;;;;;13.20;10.75;;;;;;;15.86;77.39;95065.53;5076678;28;20205;-72
2022/06/01 03:41:09;;;;;;;12.65;8.85;;;;;;;15.75;77.01;95064.66;5076630;28;20201;-73
2022/06/01 03:45:55;;;;;;;11.55;9.10;;;;;;;15.77;76.82;95069.84;5075400;28;20641;-70
2022/06/01 03:46:23;;;;;;;12.15;9.63;;;;;;;15.81;77.59;95074.25;5075295;28;20197;-75
2022/06/01 03:48:50;;;;;;;14.23;11.18;;;;;;;15.88;77.60;95073.50;5076361;28;20292;-71
2022/06/01 03:51:18;;;;;;;15.90;11.95;;;;;;;15.89;77.83;95064.75;5076086;28;20213;-69
2022/06/01 03:53:45;;;;;;;17.08;12.57;;;;;;;15.95;77.92;95067.19;5076442;28;20205;-70
2022/06/01 03:56:11;;;;;;;18.35;13.15;;;;;;;15.96;78.15;95068.78;5075900;28;20197;-70
2022/06/01 03:58:38;;;;;;;16.48;12.55;;;;;;;15.96;78.66;95072.38;5075737;28;20197;-73
2022/06/01 04:01:06;;;;;;;16.13;12.90;;;;;;;15.97;78.36;95062.81;5075648;28;20197;-70
2022/06/01 04:03:33;;;;;;;14.88;12.65;;;;;;;15.96;78.21;95068.78;5076061;28;20185;-70
2022/06/01 04:06:00;;;;;;;16.02;12.88;;;;;;;15.95;78.24;95065.22;5075446;28;20201;-70
2022/06/01 04:08:28;;;;;;;16.15;13.43;;;;;;;15.96;78.30;95071.56;5075922;28;20204;-70
2022/06/01 04:10:55;;;;;;;12.70;11.45;;;;;;;15.98;78.68;95070.00;5075730;28;20213;-70
2022/06/01 04:13:25;;;;;;;14.38;11.98;;;;;;;15.99;78.49;95074.38;5074197;28;20236;-70
2022/06/01 04:15:52;;;;;;;13.98;11.52;;;;;;;16.02;78.31;95075.59;5074884;28;20200;-69
2022/06/01 04:18:18;;;;;;;14.60;11.65;;;;;;;16.05;78.03;95074.78;5074723;28;20197;-69
2022/06/01 04:20:46;;;;;;;13.85;11.95;;;;;;;16.02;77.74;95070.81;5075891;28;20177;-69
2022/06/01 04:23:13;;;;;;;14.25;12.23;;;;;;;16.01;78.03;95076.75;5074323;28;20229;-69
2022/06/01 04:25:41;;;;;;;14.93;12.95;;;;;;;16.01;78.07;95069.22;5075776;28;20193;-69
2022/06/01 04:28:08;;;;;;;16.65;13.30;;;;;;;15.99;78.26;95071.59;5075053;28;20568;-69
2022/06/01 04:30:35;;;;;;;16.42;12.23;;;;;;;16.03;78.68;95077.19;5075687;28;20185;-69
2022/06/01 04:33:03;;;;;;;15.57;12.65;;;;;;;16.08;78.45;95077.59;5074395;28;20307;-69
2022/06/01 04:35:30;;;;;;;14.65;11.85;;;;;;;16.09;78.25;95079.22;5074619;28;20193;-69
2022/06/01 04:38:12;;;;;;;13.15;11.15;;;;;;;16.11;77.66;95085.16;5074884;28;20200;-69
2022/06/01 04:40:39;;;;;;;13.50;12.20;;;;;;;16.09;77.55;95081.19;5074963;28;20189;-69
2022/06/01 04:43:07;;;;;;;12.98;11.15;;;;;;;16.07;77.61;95084.34;5074597;28;20605;-69
2022/06/01 04:45:34;;;;;;;13.20;11.40;;;;;;;16.05;77.50;95088.69;5074252;28;20193;-69
2022/06/01 04:48:00;;;;;;;13.88;12.20;;;;;;;16.07;77.71;95084.34;5074577;28;20254;-69
2022/06/01 04:50:27;;;;;;;16.08;12.20;;;;;;;16.04;77.52;95085.13;5074403;28;20262;-70
2022/06/01 04:52:54;;;;;;;14.77;13.23;;;;;;;16.02;77.80;95089.50;5074294;28;20189;-70
2022/06/01 04:55:21;;;;;;;15.40;12.50;;;;;;;16.08;77.88;95093.50;5074346;28;20207;-70
2022/06/01 04:57:48;;;;;;;14.18;12.25;;;;;;;16.12;78.09;95091.53;5075275;28;20189;-70
2022/06/01 05:00:18;;;;;;;14.98;12.40;;;;;;;16.14;78.28;95094.72;5074521;28;20193;-70
2022/06/01 05:02:45;;;;;;;20.17;14.23;;;;;;;16.16;78.00;95097.94;5074371;28;20193;-70
2022/06/01 05:05:11;;;;;;;17.15;14.48;;;;;;;16.15;78.01;95104.66;5074237;28;20597;-70
2022/06/01 05:07:38;;;;;;;20.20;14.02;;;;;;;16.13;77.58;95104.28;5074322;28;20189;-70
2022/06/01 05:10:06;;;;;;;16.00;13.23;;;;;;;16.12;78.17;95103.47;5074138;28;20203;-70
2022/06/01 05:12:34;;;;;;;14.95;13.25;;;;;;;16.12;77.87;95103.47;5074577;28;20208;-70
2022/06/01 05:15:00;;;;;;;15.15;13.02;;;;;;;16.18;78.33;95103.09;5073958;28;20201;-75
2022/06/01 05:17:31;;;;;;;14.98;13.38;;;;;;;16.20;78.11;95109.88;5075140;28;20191;-70
2022/06/01 05:19:58;;;;;;;16.55;14.02;;;;;;;16.21;77.84;95111.47;5074072;28;20239;-69
2022/06/01 05:22:25;;;;;;;16.58;13.65;;;;;;;16.22;77.69;95115.84;5074027;28;20306;-69
2022/06/01 05:24:51;;;;;;;16.02;14.32;;;;;;;16.23;77.99;95111.91;5074845;28;20246;-69
2022/06/01 05:27:19;;;;;;;15.65;13.13;;;;;;;16.22;78.01;95109.47;5073921;28;20201;-69
2022/06/01 05:29:46;;;;;;;16.08;13.80;;;;;;;16.22;77.79;95110.28;5073840;28;20200;-70
2022/06/01 05:32:13;;;;;;;17.13;14.70;;;;;;;16.25;77.78;95109.50;5073780;28;20225;-70
2022/06/01 05:34:41;;;;;;;17.92;14.90;;;;;;;16.24;78.24;95105.13;5074342;28;20254;-70
2022/06/01 05:37:08;;;;;;;16.40;14.70;;;;;;;16.26;77.79;95102.75;5074120;28;20200;-70
2022/06/01 05:39:35;;;;;;;17.08;15.25;;;;;;;16.21;77.51;95093.97;5075772;28;20193;-70
2022/06/01 05:42:01;;;;;;;17.63;15.82;;;;;;;16.17;77.32;95096.75;5078206;28;20200;-70
2022/06/01 05:44:28;;;;;;;17.10;15.25;;;;;;;16.20;77.65;95098.75;5077989;28;20224;-70
2022/06/01 05:46:56;;;;;;;16.13;14.43;;;;;;;16.25;78.05;95095.59;5078860;28;20201;-70
2022/06/01 05:49:23;;;;;;;18.75;16.20;;;;;;;16.26;78.14;95091.63;5077461;28;20201;-70
2022/06/01 05:51:51;;;;;;;17.15;15.35;;;;;;;16.27;77.76;95092.44;5078164;28;20224;-70
2022/06/01 05:54:19;;;;;;;18.85;15.75;;;;;;;16.27;77.96;95093.22;5078133;28;20234;-70
2022/06/01 05:56:46;;;;;;;16.17;14.60;;;;;;;16.30;78.05;95095.25;5077733;28;20507;-71
2022/06/01 05:59:12;;;;;;;17.00;15.27;;;;;;;16.34;78.45;95093.28;5077659;28;20201;-70
2022/06/01 06:01:40;;;;;;;17.23;15.43;;;;;;;16.40;78.47;95090.91;5077683;28;20197;-70
2022/06/01 06:04:06;;;;;;;17.25;15.30;;;;;;;16.48;77.41;95092.53;5077471;28;20661;-70
2022/06/01 06:06:33;;;;;;;19.08;15.35;;;;;;;16.54;77.57;95088.19;5077616;28;20207;-70
2022/06/01 06:09:04;;;;;;;16.85;15.07;;;;;;;16.61;77.53;95093.78;5077441;28;20647;-70
2022/06/01 06:11:32;;;;;;;15.88;14.15;;;;;;;16.69;77.54;95093.81;5077242;28;20220;-70
2022/06/01 06:14:00;;;;;;;16.75;14.90;;;;;;;16.76;77.30;95091.09;5077735;28;20540;-70
2022/06/01 06:16:27;;;;;;;17.15;14.90;;;;;;;16.84;77.53;95096.28;5077563;28;20185;-70
2022/06/01 06:18:56;;;;;;;17.23;14.40;;;;;;;16.93;77.82;95095.13;5077045;28;20204;-70
2022/06/01 06:21:23;;;;;;;16.40;14.45;;;;;;;17.02;77.18;95095.53;5078000;28;20200;-70
2022/06/01 06:23:49;;;;;;;19.10;16.40;;;;;;;17.05;76.78;95095.56;5076959;28;20256;-70
2022/06/01 06:26:19;;;;;;;18.20;16.30;;;;;;;17.07;77.22;95092.41;5076710;28;20197;-70
2022/06/01 06:28:46;;;;;;;20.45;18.35;;;;;;;17.11;77.35;95089.63;5078035;28;20196;-70
2022/06/01 06:31:13;;;;;;;20.83;18.50;;;;;;;17.14;76.88;95089.63;5076948;28;20197;-70
2022/06/01 06:33:41;;;;;;;20.88;18.95;;;;;;;17.19;77.26;95082.84;5077335;28;20262;-70
2022/06/01 06:36:11;;;;;;;22.70;20.58;;;;;;;17.29;77.59;95090.44;5077627;28;20614;-71
2022/06/01 06:38:39;;;;;;;18.70;16.75;;;;;;;17.40;77.53;95082.09;5077893;28;20189;-70
2022/06/01 06:41:07;;;;;;;17.83;14.68;;;;;;;17.48;78.05;95080.91;5077768;28;20287;-70
2022/06/01 06:43:37;;;;;;;17.42;15.30;;;;;;;17.57;77.70;95084.09;5076424;28;20214;-70
2022/06/01 06:46:06;;;;;;;17.42;14.60;;;;;;;17.62;77.76;95086.50;5077368;28;20258;-71
2022/06/01 06:48:33;;;;;;;20.38;18.30;;;;;;;17.66;77.31;95083.72;5077666;28;20560;-71
2022/06/01 06:51:01;;;;;;;18.25;16.35;;;;;;;17.70;76.32;95081.72;5076603;28;20651;-71
2022/06/01 06:53:28;;;;;;;18.85;16.33;;;;;;;17.72;76.28;95077.34;5076809;28;20216;-70
2022/06/01 06:55:56;;;;;;;18.73;16.42;;;;;;;17.73;75.77;95073.34;5077489;28;20189;-70
2022/06/01 06:58:23;;;;;;;18.38;16.50;;;;;;;17.77;75.82;95067.78;5078296;28;20177;-70
2022/06/01 07:00:51;;;;;;;21.20;16.30;;;;;;;17.77;76.12;95065.78;5077487;28;20590;-70
2022/06/01 07:03:19;;;;;;;19.33;16.33;;;;;;;17.78;76.47;95061.00;5076427;28;20193;-70
2022/06/01 07:08:46;;;;;;;20.95;16.92;;;;;;;17.85;76.29;95055.44;4980478;28;20235;-70
2022/06/01 07:11:15;;;;;;;18.85;16.92;;;;;;;17.92;76.02;95061.00;4979856;28;20211;-70
2022/06/01 07:13:42;;;;;;;19.60;17.00;;;;;;;17.97;75.42;95063.41;5022718;28;20212;-70
2022/06/01 07:16:12;;;;;;;22.45;16.83;;;;;;;18.00;74.92;95064.56;5076973;28;20616;-70
2022/06/01 07:18:41;;;;;;;18.25;16.30;;;;;;;18.06;75.24;95062.19;5076044;28;20189;-70
2022/06/01 07:21:09;;;;;;;19.55;15.25;;;;;;;18.11;74.99;95061.75;5076367;28;20193;-70
2022/06/01 07:23:37;;;;;;;24.08;20.20;;;;;;;18.18;75.32;95062.53;5076795;28;20290;-70
2022/06/01 07:26:05;;;;;;;27.75;22.13;;;;;;;18.22;75.03;95062.53;5076836;28;20563;-70
2022/06/01 07:28:32;;;;;;;21.63;19.08;;;;;;;18.27;75.66;95062.94;5077074;28;20218;-70
2022/06/01 07:30:58;;;;;;;16.60;14.98;;;;;;;18.32;74.18;95058.94;5076913;28;20182;-70
2022/06/01 07:33:28;;;;;;;17.13;14.85;;;;;;;18.36;73.73;95051.34;5076847;28;20290;-70
2022/06/01 07:35:58;;;;;;;19.50;15.88;;;;;;;18.43;74.54;95056.09;5077146;28;20635;-70
2022/06/01 07:43:59;;;;;;;20.90;18.38;;;;;;;18.51;72.56;95046.50;5075507;28;20197;-70
2022/06/01 07:46:26;;;;;;;21.45;17.35;;;;;;;18.57;72.75;95052.47;5076159;28;20605;-70
2022/06/01 07:48:54;;;;;;;18.55;15.68;;;;;;;18.64;72.63;95050.44;5076083;28;20262;-70
2022/06/01 07:51:21;;;;;;;23.00;16.13;;;;;;;18.70;72.77;95045.22;5075732;28;20197;-70
2022/06/01 07:53:48;;;;;;;22.52;19.23;;;;;;;18.74;73.47;95046.84;5076375;28;20212;-70
2022/06/01 07:56:15;;;;;;;23.48;19.00;;;;;;;18.81;73.23;95053.56;5076291;28;20196;-70
2022/06/01 07:58:41;;;;;;;20.30;16.30;;;;;;;18.91;74.26;95050.72;5076833;28;20185;-70
2022/06/01 08:01:08;;;;;;;21.00;16.00;;;;;;;19.06;72.73;95056.25;5076057;28;20239;-70
2022/06/01 08:03:35;;;;;;;21.00;16.23;;;;;;;19.20;72.60;95056.16;5075498;28;20198;-69
2022/06/01 08:06:04;;;;;;;22.73;17.45;;;;;;;19.27;72.05;95049.72;5075530;28;20270;-69
2022/06/01 08:08:33;;;;;;;19.15;16.02;;;;;;;19.28;70.90;95054.09;5076337;28;20193;-69
2022/06/01 08:11:00;;;;;;;21.73;16.52;;;;;;;19.31;71.41;95054.09;5076461;28;20204;-69
2022/06/01 08:13:25;;;;;;;22.63;17.75;;;;;;;19.36;71.47;95059.25;5075390;28;20319;-69
2022/06/01 08:15:54;;;;;;;18.27;15.40;;;;;;;19.38;70.93;95058.84;5075627;28;20201;-69
2022/06/01 08:18:23;;;;;;;21.30;16.58;;;;;;;19.42;70.03;95051.22;5075517;28;20201;-69
2022/06/01 08:20:49;;;;;;;19.08;15.40;;;;;;;19.49;69.68;95049.16;5076325;28;20207;-69
2022/06/01 08:23:18;;;;;;;22.52;16.35;;;;;;;19.60;69.90;95045.50;5075689;28;20233;-69
2022/06/01 08:25:45;;;;;;;18.83;14.75;;;;;;;19.69;69.95;95048.66;5075204;28;20205;-69
2022/06/01 08:28:12;;;;;;;16.48;14.63;;;;;;;19.81;68.44;95045.34;5075113;28;20197;-69
2022/06/01 08:30:40;;;;;;;17.30;15.23;;;;;;;19.85;67.91;95042.50;5075411;28;20250;-69
2022/06/01 08:33:08;;;;;;;22.75;15.55;;;;;;;19.90;67.72;95044.88;5075076;28;20312;-69
2022/06/01 08:35:36;;;;;;;17.98;15.65;;;;;;;19.92;67.05;95043.25;5075802;28;20208;-69
2022/06/01 08:38:04;;;;;;;18.77;13.63;;;;;;;19.94;66.21;95045.63;5075893;28;20251;-69
2022/06/01 08:40:34;;;;;;;16.60;12.45;;;;;;;20.05;66.35;95045.53;5074952;28;20201;-69
2022/06/01 08:43:05;;;;;;;15.35;13.63;;;;;;;20.13;65.75;95045.03;5074971;28;20189;-69
2022/06/01 08:45:32;;;;;;;20.77;15.70;;;;;;;20.33;68.90;95048.03;5074906;28;20224;-69
2022/06/01 08:48:00;;;;;;;15.48;13.88;;;;;;;20.52;67.17;95035.47;5074963;28;20193;-69
2022/06/01 08:50:30;;;;;;;16.30;13.48;;;;;;;20.65;66.87;95042.09;5075267;28;20599;-69
2022/06/01 08:52:59;;;;;;;16.17;14.20;;;;;;;20.77;65.35;95035.16;5075653;28;20205;-69
2022/06/01 08:55:28;;;;;;;17.40;12.40;;;;;;;20.85;66.98;95039.44;5074708;28;20576;-69
2022/06/01 08:57:58;;;;;;;15.77;13.23;;;;;;;21.05;69.00;95045.19;5075368;28;20212;-69
2022/06/01 09:00:28;;;;;;;16.38;13.75;;;;;;;21.18;65.45;95042.59;5074868;28;20259;-69
2022/06/01 09:03:02;;;;;;;18.25;13.63;;;;;;;21.26;64.68;95037.69;5074497;28;20193;-70
2022/06/01 09:05:35;;;;;;;13.85;12.43;;;;;;;21.31;63.41;95037.19;5075266;28;20189;-70
2022/06/01 09:08:06;;;;;;;14.00;11.95;;;;;;;21.36;62.30;95034.75;5075750;28;20246;-70
2022/06/01 09:10:43;;;;;;;14.05;12.45;;;;;;;21.45;62.45;95036.22;5075717;28;20195;-70
2022/06/01 09:13:14;;;;;;;16.13;12.27;;;;;;;21.61;61.94;95036.38;5074543;28;20262;-70
2022/06/01 09:15:46;;;;;;;13.38;11.57;;;;;;;21.82;62.37;95040.84;5075615;28;20192;-70
2022/06/01 09:18:14;;;;;;;15.90;12.68;;;;;;;21.93;60.54;95035.81;5074773;28;20205;-70
2022/06/01 09:23:25;;;;;;;16.00;11.32;;;;;;;22.02;60.97;95033.28;5074996;28;20235;-70
2022/06/01 09:25:55;;;;;;;12.75;10.63;;;;;;;22.07;59.58;95029.19;5074170;28;20688;-70
2022/06/01 09:28:26;;;;;;;12.77;10.63;;;;;;;22.25;61.05;95021.25;5075321;28;20196;-70
2022/06/01 09:30:57;;;;;;;12.50;9.68;;;;;;;22.43;58.88;95020.91;5074389;28;20227;-70
2022/06/01 09:33:26;;;;;;;14.32;9.80;;;;;;;22.46;60.04;95017.22;5075008;28;20204;-70
2022/06/01 09:36:04;;;;;;;13.25;9.20;;;;;;;22.56;59.59;95019.03;5074611;28;20533;-70
2022/06/01 09:38:37;;;;;;;13.07;8.63;;;;;;;22.66;59.52;95013.63;5074738;28;20568;-70
2022/06/01 09:41:06;;;;;;;7.93;7.13;;;;;;;22.89;58.25;95007.94;5075200;28;20198;-70
2022/06/01 09:43:35;;;;;;;7.93;7.13;;;;;;;22.99;56.42;95014.59;5075061;28;20527;-70
2022/06/01 09:46:01;;;;;;;11.32;8.57;;;;;;;23.09;55.91;95013.53;5074056;28;20193;-70
2022/06/01 09:48:30;;;;;;;10.73;7.85;;;;;;;23.25;53.68;95012.81;5075038;28;20235;-70
2022/06/01 09:51:05;;;;;;;8.02;7.22;;;;;;;23.34;55.13;95018.59;5073906;28;20242;-70
2022/06/01 09:53:37;;;;;;;8.30;6.85;;;;;;;23.34;53.38;95010.16;5073720;28;20220;-70
2022/06/01 09:56:04;;;;;;;8.30;5.88;;;;;;;23.43;53.46;95006.75;5074682;28;20235;-70
2022/06/01 10:06:52;;;;;;;8.05;6.10;;;;;;;23.65;52.17;94998.59;5073477;28;20505;-70
2022/06/01 10:09:22;;;;;;;8.23;5.78;;;;;;;23.65;51.80;95001.41;5073387;28;20659;-70
2022/06/01 10:11:51;;;;;;;6.93;5.40;;;;;;;23.70;48.19;94993.25;5074723;28;20193;-70
2022/06/01 10:14:21;;;;;;;8.70;5.70;;;;;;;23.74;49.59;94998.78;5074663;28;20295;-70
2022/06/01 10:17:16;;;;;;;7.78;6.10;;;;;;;23.89;52.41;94997.19;5073857;28;20201;-70
2022/06/01 10:19:45;;;;;;;6.57;5.97;;;;;;;24.03;51.24;94994.00;5074508;28;20185;-70
2022/06/01 10:22:18;;;;;;;7.30;5.05;;;;;;;24.08;47.60;94995.50;5073636;28;20563;-70
2022/06/01 10:24:50;;;;;;;10.57;6.72;;;;;;;24.14;49.40;94996.53;5074999;28;20189;-70
2022/06/01 10:27:18;;;;;;;7.53;6.22;;;;;;;24.29;47.62;95002.56;5077649;28;20582;-70
2022/06/01 10:29:50;;;;;;;8.32;5.18;;;;;;;24.24;46.57;94992.66;5077328;28;20189;-70
2022/06/01 10:32:30;;;;;;;6.13;5.35;;;;;;;24.26;47.08;94993.00;5077885;28;20199;-70
2022/06/01 10:35:05;;;;;;;5.20;4.70;;;;;;;24.30;46.39;94998.53;5077925;28;20257;-70
2022/06/01 10:37:36;;;;;;;7.97;5.28;;;;;;;24.49;49.02;94991.19;5077910;28;20181;-70
2022/06/01 10:40:06;;;;;;;5.47;4.80;;;;;;;24.61;46.67;94984.03;5077948;28;20189;-70
2022/06/01 10:45:27;;;;;;;5.20;4.45;;;;;;;24.74;47.33;94982.03;5076427;28;20211;-70
2022/06/01 10:47:58;;;;;;;6.82;4.18;;;;;;;24.88;45.46;94981.63;5077177;28;20223;-70
2022/06/01 10:50:28;;;;;;;7.07;5.28;;;;;;;24.94;46.25;94984.66;5076475;28;20201;-70
2022/06/01 10:52:57;;;;;;;5.35;4.88;;;;;;;24.97;44.82;94984.56;5076884;28;20294;-70
2022/06/01 10:55:26;;;;;;;5.07;4.68;;;;;;;25.08;45.55;94980.63;5076552;28;20197;-70
2022/06/01 10:57:53;;;;;;;4.93;4.43;;;;;;;25.13;44.39;94978.06;5076773;28;20216;-70
2022/06/01 11:00:24;;;;;;;4.78;4.38;;;;;;;25.12;44.70;94979.28;5076806;28;20239;-70
2022/06/01 11:03:38;;;;;;;6.45;5.20;;;;;;;25.15;43.95;94972.75;5077249;28;20185;-70
2022/06/01 11:06:16;;;;;;;5.00;4.47;;;;;;;25.18;45.99;94971.06;5077200;28;20192;-70
2022/06/01 11:08:51;;;;;;;4.95;4.15;;;;;;;25.21;47.25;94973.78;5077446;28;20195;-70
2022/06/01 11:11:24;;;;;;;6.57;4.30;;;;;;;25.22;43.53;94963.28;5077364;28;20262;-70
2022/06/01 11:14:09;;;;;;;4.88;4.40;;;;;;;25.32;43.25;94969.84;5075883;28;20216;-70
2022/06/01 11:16:44;;;;;;;6.03;4.40;;;;;;;25.35;43.20;94961.25;5076255;28;20235;-70
2022/06/01 11:19:24;;;;;;;5.30;4.50;;;;;;;25.37;44.16;94955.94;5076312;28;20262;-70
2022/06/01 11:22:05;;;;;;;5.32;4.10;;;;;;;25.56;42.75;94965.41;5076832;28;20258;-70
2022/06/01 11:24:46;;;;;;;6.40;4.28;;;;;;;25.57;44.98;94958.53;5077117;28;20181;-70
2022/06/01 11:27:23;;;;;;;4.80;4.40;;;;;;;25.62;43.79;94955.13;5076978;28;20188;-70
2022/06/01 11:30:04;;;;;;;5.70;4.70;;;;;;;25.73;45.59;94951.16;5076024;28;20716;-70
2022/06/01 11:32:35;;;;;;;6.22;4.65;;;;;;;25.74;45.06;94944.25;5076555;28;20633;-70
2022/06/01 11:35:08;;;;;;;5.32;4.07;;;;;;;25.69;42.36;94943.59;5076025;28;20185;-70
2022/06/01 11:37:40;;;;;;;5.47;3.92;;;;;;;25.74;44.80;94942.22;5074785;28;20192;-70
2022/06/01 11:40:10;;;;;;;4.28;3.65;;;;;;;25.75;42.71;94943.03;5075998;28;20193;-70
2022/06/01 11:42:40;;;;;;;5.15;4.10;;;;;;;25.82;42.67;94952.09;5076597;28;20205;-70
2022/06/01 11:45:10;;;;;;;4.95;4.00;;;;;;;25.97;43.32;94943.13;5076677;28;20525;-70
2022/06/01 11:47:46;;;;;;;4.25;3.85;;;;;;;26.04;41.80;94945.69;5075675;28;20193;-70
2022/06/01 11:50:20;;;;;;;7.47;3.90;;;;;;;26.04;40.63;94940.03;5076520;28;20184;-70
2022/06/01 11:52:53;;;;;;;4.40;3.65;;;;;;;26.01;40.27;94940.97;5075949;28;20282;-70
2022/06/01 11:55:32;;;;;;;4.35;3.90;;;;;;;26.00;40.71;94937.34;5075458;28;20189;-70
2022/06/01 11:58:07;;;;;;;5.47;4.20;;;;;;;25.99;43.04;94932.13;5076752;28;20185;-71
2022/06/01 12:00:37;;;;;;;3.97;3.58;;;;;;;26.00;39.94;94928.88;5076330;28;20519;-70
2022/06/01 12:03:46;;;;;;;5.18;3.83;;;;;;;26.06;40.01;94929.06;5075377;28;20204;-70